Time;durP1;ratioP1;P1;durP2;ratioP2;P2;SDS_P1;SDS_P2;PMS_P1;PMS_P2;Temp;Humidity;BMP_temperature;BMP_pressure;BME280_temperature;BME280_humidity;BME280_pressure;Samples;Min_cycle;Max_cycle;Signal;HPM_P1;HPM_P2
2023/06/03 00:02:17;;;;;;;17.10;6.73;;;;;;;;;;5116324;23;20228;-71
2023/06/03 00:04:43;;;;;;;13.93;6.57;;;;;;;;;;5077222;28;20177;-71
2023/06/03 00:07:09;;;;;;;11.97;6.70;;;;;;;;;;5094800;28;20184;-71
2023/06/03 00:09:35;;;;;;;13.70;6.00;;;;;;;;;;5076968;28;20177;-68
2023/06/03 00:12:01;;;;;;;11.20;5.60;;;;;;;;;;5096264;28;20208;-70
2023/06/03 00:14:27;;;;;;;12.70;6.47;;;;;;;;;;5095154;28;20247;-71
2023/06/03 00:16:53;;;;;;;13.37;5.90;;;;;;;;;;5095235;28;20199;-71
2023/06/03 00:19:19;;;;;;;12.27;6.70;;;;;;;;;;5076260;28;20276;-71
2023/06/03 00:21:45;;;;;;;15.03;6.37;;;;;;;;;;5077173;28;20657;-71
2023/06/03 00:24:12;;;;;;;13.77;5.67;;;;;;;;;;5077659;28;20251;-71
2023/06/03 00:26:38;;;;;;;11.70;5.37;;;;;;;;;;5097417;28;20597;-71
2023/06/03 00:29:04;;;;;;;11.53;5.77;;;;;;;;;;5099356;28;20177;-71
2023/06/03 00:31:30;;;;;;;12.13;5.60;;;;;;;;;;5096953;28;20173;-71
2023/06/03 00:33:56;;;;;;;10.67;6.17;;;;;;;;;;5113664;28;20192;-71
2023/06/03 00:36:22;;;;;;;14.20;6.20;;;;;;;;;;5095143;28;20237;-71
2023/06/03 00:38:48;;;;;;;9.90;6.93;;;;;;;;;;5078095;28;20183;-71
2023/06/03 00:41:14;;;;;;;14.80;6.73;;;;;;;;;;5078578;28;20177;-70
2023/06/03 00:43:40;;;;;;;14.17;6.07;;;;;;;;;;5079040;28;20280;-70
2023/06/03 00:46:07;;;;;;;12.70;6.23;;;;;;;;;;5097172;28;20205;-71
2023/06/03 00:48:33;;;;;;;14.40;6.87;;;;;;;;;;5094002;28;20169;-70
2023/06/03 00:50:59;;;;;;;14.40;6.60;;;;;;;;;;5075622;28;20181;-71
2023/06/03 00:53:26;;;;;;;13.87;5.83;;;;;;;;;;5095593;28;20279;-70
2023/06/03 00:55:52;;;;;;;14.43;6.27;;;;;;;;;;5077718;28;20696;-71
2023/06/03 00:58:18;;;;;;;11.13;5.77;;;;;;;;;;5095686;28;20205;-71
2023/06/03 01:00:44;;;;;;;15.63;6.47;;;;;;;;;;5096311;28;20176;-70
2023/06/03 01:03:13;;;;;;;13.47;5.87;;;;;;;;;;5098452;28;20694;-71
2023/06/03 01:05:40;;;;;;;10.40;5.77;;;;;;;;;;5100689;28;20165;-70
2023/06/03 01:08:13;;;;;;;14.80;6.30;;;;;;;;;;5082486;28;20181;-70
2023/06/03 01:10:43;;;;;;;13.17;6.47;;;;;;;;;;5108148;28;20158;-70
2023/06/03 01:13:23;;;;;;;11.77;6.27;;;;;;;;;;5103792;28;20193;-71
2023/06/03 01:15:53;;;;;;;13.47;6.73;;;;;;;;;;5082454;28;20501;-71
2023/06/03 01:18:19;;;;;;;14.17;7.83;;;;;;;;;;5101519;28;20246;-70
2023/06/03 01:20:48;;;;;;;14.17;7.67;;;;;;;;;;5100271;28;20258;-71
2023/06/03 01:23:28;;;;;;;18.50;8.13;;;;;;;;;;5081422;28;20200;-71
2023/06/03 01:25:56;;;;;;;14.40;7.07;;;;;;;;;;5099765;28;20164;-70
2023/06/03 01:28:23;;;;;;;19.17;7.80;;;;;;;;;;5081117;28;20181;-71
2023/06/03 01:30:50;;;;;;;12.33;7.10;;;;;;;;;;5099354;28;20176;-70
2023/06/03 01:33:17;;;;;;;14.53;6.50;;;;;;;;;;5090782;28;20196;-71
2023/06/03 01:35:43;;;;;;;10.67;6.27;;;;;;;;;;5084426;28;20181;-70
2023/06/03 01:38:09;;;;;;;15.80;6.37;;;;;;;;;;5099676;28;20260;-70
2023/06/03 01:40:35;;;;;;;11.80;5.70;;;;;;;;;;5081072;28;20216;-70
2023/06/03 01:43:02;;;;;;;10.87;6.10;;;;;;;;;;5098895;28;20246;-70
2023/06/03 01:45:28;;;;;;;12.80;6.10;;;;;;;;;;5099522;28;20165;-70
2023/06/03 01:47:54;;;;;;;12.17;6.30;;;;;;;;;;5099362;28;20206;-71
2023/06/03 01:50:22;;;;;;;9.07;6.47;;;;;;;;;;5098901;28;20226;-71
2023/06/03 01:52:48;;;;;;;10.90;6.40;;;;;;;;;;5098396;28;20197;-70
2023/06/03 01:55:14;;;;;;;8.63;5.73;;;;;;;;;;5081173;28;20191;-70
2023/06/03 01:57:40;;;;;;;10.87;6.40;;;;;;;;;;5099493;28;20209;-70
2023/06/03 02:00:07;;;;;;;14.10;6.37;;;;;;;;;;5081607;28;20201;-71
2023/06/03 02:02:33;;;;;;;13.97;6.47;;;;;;;;;;5100773;28;20231;-71
2023/06/03 02:04:59;;;;;;;15.63;6.63;;;;;;;;;;5100230;28;20189;-71
2023/06/03 02:07:25;;;;;;;12.90;6.60;;;;;;;;;;5100511;28;20233;-71
2023/06/03 02:09:52;;;;;;;16.63;7.10;;;;;;;;;;5100613;28;20196;-70
2023/06/03 02:12:19;;;;;;;14.60;7.93;;;;;;;;;;5099754;28;20201;-71
2023/06/03 02:14:46;;;;;;;13.17;8.13;;;;;;;;;;5099134;28;20170;-70
2023/06/03 02:17:12;;;;;;;13.40;6.80;;;;;;;;;;5081440;28;20223;-70
2023/06/03 02:19:38;;;;;;;13.73;6.80;;;;;;;;;;5081521;28;20659;-71
2023/06/03 02:22:05;;;;;;;10.73;6.80;;;;;;;;;;5099507;28;20201;-71
2023/06/03 02:24:34;;;;;;;14.20;7.00;;;;;;;;;;5099090;28;20544;-71
2023/06/03 02:27:01;;;;;;;13.63;7.33;;;;;;;;;;5100696;28;20174;-71
2023/06/03 02:29:29;;;;;;;12.63;6.60;;;;;;;;;;5099944;28;20173;-71
2023/06/03 02:31:55;;;;;;;11.07;7.03;;;;;;;;;;5099876;28;20196;-71
2023/06/03 02:34:22;;;;;;;15.10;7.77;;;;;;;;;;5084401;28;20191;-71
2023/06/03 02:36:49;;;;;;;11.90;7.20;;;;;;;;;;5103047;28;20203;-71
2023/06/03 02:39:16;;;;;;;10.00;7.03;;;;;;;;;;5086300;28;20192;-71
2023/06/03 02:41:42;;;;;;;15.10;6.97;;;;;;;;;;5103716;28;20591;-70
2023/06/03 02:44:08;;;;;;;13.17;6.77;;;;;;;;;;5082558;28;20173;-70
2023/06/03 02:46:34;;;;;;;11.80;7.03;;;;;;;;;;5098610;28;20192;-71
2023/06/03 02:49:03;;;;;;;15.13;7.03;;;;;;;;;;5079573;28;20181;-71
2023/06/03 02:51:28;;;;;;;12.07;6.00;;;;;;;;;;5081252;28;20204;-71
2023/06/03 02:53:55;;;;;;;13.77;7.27;;;;;;;;;;5080100;28;20645;-70
2023/06/03 02:56:22;;;;;;;15.10;7.77;;;;;;;;;;5099093;28;20216;-71
2023/06/03 02:58:48;;;;;;;9.33;7.30;;;;;;;;;;5099192;28;20173;-70
2023/06/03 03:01:14;;;;;;;10.90;7.00;;;;;;;;;;5099184;28;20192;-71
2023/06/03 03:03:41;;;;;;;10.93;6.87;;;;;;;;;;5081406;28;20223;-70
2023/06/03 03:06:11;;;;;;;10.53;6.40;;;;;;;;;;5080995;28;20208;-72
2023/06/03 03:08:37;;;;;;;10.33;6.03;;;;;;;;;;5098254;28;20215;-71
2023/06/03 03:11:03;;;;;;;11.13;6.10;;;;;;;;;;5079885;28;20181;-70
2023/06/03 03:13:29;;;;;;;9.07;5.27;;;;;;;;;;5098750;28;20193;-70
2023/06/03 03:15:55;;;;;;;11.70;6.47;;;;;;;;;;5079158;28;20178;-71
2023/06/03 03:18:21;;;;;;;9.27;6.07;;;;;;;;;;5080032;28;20259;-70
2023/06/03 03:20:47;;;;;;;10.13;5.93;;;;;;;;;;5080407;28;20177;-71
2023/06/03 03:23:13;;;;;;;10.57;6.23;;;;;;;;;;5080099;28;20203;-71
2023/06/03 03:25:42;;;;;;;8.30;5.50;;;;;;;;;;5080162;28;20181;-70
2023/06/03 03:28:08;;;;;;;10.33;5.53;;;;;;;;;;5080151;28;20180;-70
2023/06/03 03:30:37;;;;;;;10.83;5.70;;;;;;;;;;5080556;28;20185;-70
2023/06/03 03:33:03;;;;;;;8.50;5.50;;;;;;;;;;5080099;28;20694;-70
2023/06/03 03:35:30;;;;;;;11.27;5.63;;;;;;;;;;5080430;28;20181;-69
2023/06/03 03:37:58;;;;;;;10.93;4.97;;;;;;;;;;5098979;28;20193;-70
2023/06/03 03:40:25;;;;;;;8.87;4.97;;;;;;;;;;5081565;28;20191;-70
2023/06/03 03:42:53;;;;;;;7.80;4.33;;;;;;;;;;5098186;28;20195;-70
2023/06/03 03:45:20;;;;;;;10.93;5.20;;;;;;;;;;5099360;28;20175;-70
2023/06/03 03:47:50;;;;;;;11.20;5.83;;;;;;;;;;5098075;28;20192;-70
2023/06/03 03:50:19;;;;;;;11.27;5.37;;;;;;;;;;5099352;28;20181;-71
2023/06/03 03:52:45;;;;;;;6.33;4.87;;;;;;;;;;5083410;28;20205;-70
2023/06/03 03:55:11;;;;;;;10.57;4.90;;;;;;;;;;5102890;28;20183;-70
2023/06/03 03:57:39;;;;;;;10.77;5.07;;;;;;;;;;5085073;28;20205;-71
2023/06/03 04:00:06;;;;;;;12.33;5.60;;;;;;;;;;5102445;28;20174;-71
2023/06/03 04:02:36;;;;;;;9.93;5.87;;;;;;;;;;5100870;28;20209;-71
2023/06/03 04:05:03;;;;;;;9.27;5.43;;;;;;;;;;5080791;28;20246;-71
2023/06/03 04:07:35;;;;;;;13.43;5.70;;;;;;;;;;5080120;28;20213;-70
2023/06/03 04:10:01;;;;;;;9.83;4.97;;;;;;;;;;5099777;28;20160;-70
2023/06/03 04:12:32;;;;;;;9.93;5.20;;;;;;;;;;5080618;28;20219;-70
2023/06/03 04:14:58;;;;;;;7.80;4.57;;;;;;;;;;5099310;28;20158;-70
2023/06/03 04:17:27;;;;;;;6.87;4.33;;;;;;;;;;5098706;28;20216;-71
2023/06/03 04:19:53;;;;;;;7.93;5.00;;;;;;;;;;5098379;28;20170;-71
2023/06/03 04:22:21;;;;;;;7.33;4.40;;;;;;;;;;5097350;28;20199;-71
2023/06/03 04:24:47;;;;;;;9.77;4.67;;;;;;;;;;5099067;28;20189;-70
2023/06/03 04:27:14;;;;;;;5.73;4.03;;;;;;;;;;5080947;28;20184;-70
2023/06/03 04:29:40;;;;;;;9.23;4.70;;;;;;;;;;5080232;28;20169;-71
2023/06/03 04:32:06;;;;;;;8.10;3.97;;;;;;;;;;5098652;28;20184;-71
2023/06/03 04:34:32;;;;;;;6.50;4.07;;;;;;;;;;5080873;28;20189;-70
2023/06/03 04:36:58;;;;;;;9.23;4.37;;;;;;;;;;5099621;28;20211;-70
2023/06/03 04:39:25;;;;;;;6.03;2.80;;;;;;;;;;5083971;28;20280;-70
2023/06/03 04:41:50;;;;;;;7.60;3.40;;;;;;;;;;5083625;28;20200;-70
2023/06/03 04:44:16;;;;;;;5.60;3.43;;;;;;;;;;5102294;28;20238;-70
2023/06/03 04:46:45;;;;;;;6.43;3.80;;;;;;;;;;5102140;28;20188;-70
2023/06/03 04:49:12;;;;;;;3.73;2.73;;;;;;;;;;5083101;28;20185;-70
2023/06/03 04:51:40;;;;;;;7.33;3.60;;;;;;;;;;5101555;28;20260;-70
2023/06/03 04:54:06;;;;;;;6.83;3.30;;;;;;;;;;5083392;28;20188;-70
2023/06/03 04:56:32;;;;;;;4.93;3.13;;;;;;;;;;5100632;28;20201;-70
2023/06/03 04:59:00;;;;;;;4.73;2.80;;;;;;;;;;5082086;28;20173;-70
2023/06/03 05:01:26;;;;;;;6.13;3.70;;;;;;;;;;5104089;28;20169;-70
2023/06/03 05:03:52;;;;;;;10.57;5.67;;;;;;;;;;5093339;28;20216;-70
2023/06/03 05:06:19;;;;;;;9.70;4.17;;;;;;;;;;5094241;28;20177;-70
2023/06/03 05:08:47;;;;;;;6.63;3.80;;;;;;;;;;5093840;28;20197;-69
2023/06/03 05:11:15;;;;;;;5.43;3.40;;;;;;;;;;5118473;28;20177;-70
2023/06/03 05:13:41;;;;;;;4.57;3.07;;;;;;;;;;5117441;28;20189;-70
2023/06/03 05:16:07;;;;;;;7.23;2.87;;;;;;;;;;5117231;28;20262;-70
2023/06/03 05:18:33;;;;;;;5.73;3.00;;;;;;;;;;5099577;28;20173;-70
2023/06/03 05:20:58;;;;;;;5.23;2.87;;;;;;;;;;5098535;28;20282;-70
2023/06/03 05:23:24;;;;;;;7.20;3.00;;;;;;;;;;5080611;28;20754;-70
2023/06/03 05:25:50;;;;;;;7.60;3.20;;;;;;;;;;5098054;28;20256;-70
2023/06/03 05:28:16;;;;;;;10.93;2.90;;;;;;;;;;5080553;28;20181;-70
2023/06/03 05:30:42;;;;;;;4.07;2.63;;;;;;;;;;5098570;28;20177;-70
2023/06/03 05:33:08;;;;;;;5.30;3.37;;;;;;;;;;5079718;28;20197;-70
2023/06/03 05:35:34;;;;;;;7.70;3.60;;;;;;;;;;5079801;28;20189;-71
2023/06/03 05:38:00;;;;;;;9.43;3.83;;;;;;;;;;5079807;28;20307;-70
2023/06/03 05:40:26;;;;;;;8.13;3.80;;;;;;;;;;5098045;28;20210;-70
2023/06/03 05:42:55;;;;;;;8.03;4.03;;;;;;;;;;5097987;28;20200;-70
2023/06/03 05:45:21;;;;;;;8.93;3.60;;;;;;;;;;5079991;28;20173;-70
2023/06/03 05:47:47;;;;;;;6.07;3.10;;;;;;;;;;5079106;28;20635;-68
2023/06/03 05:50:13;;;;;;;4.97;2.80;;;;;;;;;;5103645;28;20203;-70
2023/06/03 05:52:39;;;;;;;7.17;3.10;;;;;;;;;;5085287;28;20666;-69
2023/06/03 05:55:05;;;;;;;6.63;2.83;;;;;;;;;;5079849;28;20232;-69
2023/06/03 05:57:31;;;;;;;5.43;3.37;;;;;;;;;;5097407;28;20243;-71
2023/06/03 05:59:57;;;;;;;7.10;3.07;;;;;;;;;;5097611;28;20170;-70
2023/06/03 06:02:23;;;;;;;5.67;3.13;;;;;;;;;;5097478;28;20220;-71
2023/06/03 06:04:49;;;;;;;5.03;3.00;;;;;;;;;;5097315;28;20184;-70
2023/06/03 06:07:15;;;;;;;4.83;2.83;;;;;;;;;;5078759;28;20185;-70
2023/06/03 06:09:41;;;;;;;7.67;3.60;;;;;;;;;;5097019;28;20181;-71
2023/06/03 06:12:07;;;;;;;6.63;3.83;;;;;;;;;;5097055;28;20204;-70
2023/06/03 06:14:33;;;;;;;6.10;3.53;;;;;;;;;;5097065;28;20179;-70
2023/06/03 06:16:59;;;;;;;3.20;2.80;;;;;;;;;;5078872;28;20200;-70
2023/06/03 06:19:25;;;;;;;6.07;3.60;;;;;;;;;;5096575;28;20185;-70
2023/06/03 06:21:51;;;;;;;5.73;2.90;;;;;;;;;;5079355;28;20177;-70
2023/06/03 06:24:17;;;;;;;6.83;2.80;;;;;;;;;;5096512;28;20559;-70
2023/06/03 06:26:43;;;;;;;5.50;2.50;;;;;;;;;;5095720;28;20181;-70
2023/06/03 06:29:09;;;;;;;6.93;3.57;;;;;;;;;;5077531;28;20177;-70
2023/06/03 06:31:35;;;;;;;7.87;2.73;;;;;;;;;;5095642;28;20281;-70
2023/06/03 06:34:01;;;;;;;4.43;2.73;;;;;;;;;;5095720;28;20208;-70
2023/06/03 06:36:31;;;;;;;9.77;2.40;;;;;;;;;;5077627;28;20184;-70
2023/06/03 06:38:57;;;;;;;6.70;3.10;;;;;;;;;;5077694;28;20177;-71
2023/06/03 06:41:26;;;;;;;11.77;2.73;;;;;;;;;;5077765;28;20173;-70
2023/06/03 06:43:52;;;;;;;4.47;2.70;;;;;;;;;;5096115;28;20724;-70
2023/06/03 06:46:18;;;;;;;3.67;2.23;;;;;;;;;;5077729;28;20230;-69
2023/06/03 06:48:44;;;;;;;4.47;2.20;;;;;;;;;;5095898;28;20185;-70
2023/06/03 06:51:10;;;;;;;8.17;2.57;;;;;;;;;;5096342;28;20204;-70
2023/06/03 06:53:36;;;;;;;6.73;2.80;;;;;;;;;;5078149;28;20197;-70
2023/06/03 06:56:07;;;;;;;6.67;2.67;;;;;;;;;;5076851;28;20212;-70
2023/06/03 06:58:37;;;;;;;5.23;2.57;;;;;;;;;;5095108;28;20250;-70
2023/06/03 07:01:07;;;;;;;5.27;2.60;;;;;;;;;;5076080;28;20181;-70
2023/06/03 07:03:33;;;;;;;4.30;2.07;;;;;;;;;;5094681;28;20284;-70
2023/06/03 07:06:00;;;;;;;2.17;1.87;;;;;;;;;;5088975;22;20328;-66
2023/06/03 07:08:26;;;;;;;8.83;2.30;;;;;;;;;;5094200;28;20280;-65
2023/06/03 07:10:56;;;;;;;4.17;2.40;;;;;;;;;;5076496;28;20177;-65
2023/06/03 07:13:22;;;;;;;4.20;2.17;;;;;;;;;;5076131;28;20208;-66
2023/06/03 07:15:47;;;;;;;3.23;1.80;;;;;;;;;;5076004;28;20201;-66
2023/06/03 07:18:13;;;;;;;3.30;1.93;;;;;;;;;;5076041;28;20228;-66
2023/06/03 07:20:41;;;;;;;6.50;2.43;;;;;;;;;;5094115;28;20664;-66
2023/06/03 07:23:10;;;;;;;5.27;1.97;;;;;;;;;;5094389;28;20663;-65
2023/06/03 07:25:46;;;;;;;4.00;1.77;;;;;;;;;;5094003;28;20670;-66
2023/06/03 07:28:13;;;;;;;6.10;2.20;;;;;;;;;;5093919;28;20177;-65
2023/06/03 07:30:39;;;;;;;4.23;2.00;;;;;;;;;;5094184;28;20185;-66
2023/06/03 07:33:06;;;;;;;6.43;1.73;;;;;;;;;;5094124;28;20181;-65
2023/06/03 07:35:37;;;;;;;3.43;1.83;;;;;;;;;;5093777;28;20196;-66
2023/06/03 07:38:06;;;;;;;6.83;2.57;;;;;;;;;;5094481;28;20593;-66
2023/06/03 07:40:33;;;;;;;5.27;2.20;;;;;;;;;;5075725;28;20203;-65
2023/06/03 07:42:59;;;;;;;7.63;1.80;;;;;;;;;;5093824;28;20264;-66
2023/06/03 07:45:26;;;;;;;2.03;1.83;;;;;;;;;;5093734;28;20279;-66
2023/06/03 07:47:52;;;;;;;6.13;2.20;;;;;;;;;;5093482;28;20176;-65
2023/06/03 07:50:25;;;;;;;5.67;2.00;;;;;;;;;;5093998;28;20211;-65
2023/06/03 07:52:57;;;;;;;2.00;1.70;;;;;;;;;;5093510;28;20181;-66
2023/06/03 07:55:24;;;;;;;2.70;1.87;;;;;;;;;;5093719;28;20243;-66
2023/06/03 07:57:50;;;;;;;1.93;1.83;;;;;;;;;;5093574;28;20212;-65
2023/06/03 08:00:17;;;;;;;6.10;2.20;;;;;;;;;;5075548;28;20182;-65
2023/06/03 08:02:43;;;;;;;5.07;2.50;;;;;;;;;;5093355;28;20520;-65
2023/06/03 08:05:10;;;;;;;5.53;2.00;;;;;;;;;;5093403;28;20216;-66
2023/06/03 08:07:36;;;;;;;1.77;1.67;;;;;;;;;;5093382;28;20184;-66
2023/06/03 08:10:03;;;;;;;4.67;1.90;;;;;;;;;;5075280;28;20177;-66
2023/06/03 08:12:31;;;;;;;6.10;2.20;;;;;;;;;;5093051;28;20594;-66
2023/06/03 08:14:57;;;;;;;3.20;1.90;;;;;;;;;;5075095;28;20204;-65
2023/06/03 08:17:35;;;;;;;3.97;1.90;;;;;;;;;;5093141;28;20197;-67
2023/06/03 08:20:08;;;;;;;5.37;1.90;;;;;;;;;;5075194;28;20203;-66
2023/06/03 08:22:41;;;;;;;2.23;1.53;;;;;;;;;;5075412;28;20215;-65
2023/06/03 08:25:07;;;;;;;6.10;1.73;;;;;;;;;;5093190;28;20216;-66
2023/06/03 08:27:33;;;;;;;4.57;2.07;;;;;;;;;;5093332;28;20723;-65
2023/06/03 08:29:59;;;;;;;8.97;1.70;;;;;;;;;;5075237;28;20184;-65
2023/06/03 08:32:25;;;;;;;2.67;1.93;;;;;;;;;;5093352;28;20181;-64
2023/06/03 08:34:51;;;;;;;3.47;1.80;;;;;;;;;;5074977;28;20233;-65
2023/06/03 08:37:17;;;;;;;5.13;1.90;;;;;;;;;;5092994;28;20208;-65
2023/06/03 08:39:44;;;;;;;7.17;1.57;;;;;;;;;;5093388;28;20658;-66
2023/06/03 08:42:12;;;;;;;5.03;1.90;;;;;;;;;;5093067;28;20227;-65
2023/06/03 08:44:38;;;;;;;3.97;1.90;;;;;;;;;;5093526;28;20181;-66
2023/06/03 08:47:16;;;;;;;15.53;2.23;;;;;;;;;;5093218;28;20177;-66
2023/06/03 08:50:02;;;;;;;1.77;1.67;;;;;;;;;;5093578;28;20176;-65
2023/06/03 08:52:30;;;;;;;5.50;1.90;;;;;;;;;;5074977;28;20597;-66
2023/06/03 08:55:00;;;;;;;2.43;1.77;;;;;;;;;;5093289;28;20212;-66
2023/06/03 08:57:27;;;;;;;14.67;2.73;;;;;;;;;;5092814;28;20252;-66
2023/06/03 08:59:54;;;;;;;4.30;1.67;;;;;;;;;;5092885;28;20192;-66
2023/06/03 09:02:20;;;;;;;2.80;2.20;;;;;;;;;;5074757;28;20177;-66
2023/06/03 09:04:49;;;;;;;4.47;1.90;;;;;;;;;;5092926;28;20695;-66
2023/06/03 09:07:15;;;;;;;3.90;1.90;;;;;;;;;;5074939;28;20178;-65
2023/06/03 09:09:42;;;;;;;2.90;1.73;;;;;;;;;;5092975;28;20182;-66
2023/06/03 09:12:08;;;;;;;3.37;1.73;;;;;;;;;;5092824;28;20234;-65
2023/06/03 09:14:35;;;;;;;3.07;1.80;;;;;;;;;;5092744;28;20256;-65
2023/06/03 09:17:01;;;;;;;4.30;1.60;;;;;;;;;;5093147;28;20212;-66
2023/06/03 09:19:27;;;;;;;7.20;2.20;;;;;;;;;;5074824;28;20181;-66
2023/06/03 09:21:57;;;;;;;2.87;1.60;;;;;;;;;;5074660;28;20176;-66
2023/06/03 09:24:23;;;;;;;5.10;2.60;;;;;;;;;;5095685;28;20185;-66
2023/06/03 09:26:49;;;;;;;3.07;1.70;;;;;;;;;;5078239;28;20174;-66
2023/06/03 09:29:17;;;;;;;2.20;1.90;;;;;;;;;;5096338;28;20178;-66
2023/06/03 09:31:43;;;;;;;6.63;2.10;;;;;;;;;;5096411;28;20180;-66
2023/06/03 09:34:09;;;;;;;2.73;1.93;;;;;;;;;;5096513;28;20179;-66
2023/06/03 09:36:48;;;;;;;4.53;2.33;;;;;;;;;;5078023;28;20201;-65
2023/06/03 09:39:17;;;;;;;2.53;2.00;;;;;;;;;;5096408;28;20302;-66
2023/06/03 09:41:44;;;;;;;6.00;2.10;;;;;;;;;;5096318;28;20181;-66
2023/06/03 09:44:10;;;;;;;7.13;2.23;;;;;;;;;;5096197;28;20670;-66
2023/06/03 09:46:37;;;;;;;3.07;1.93;;;;;;;;;;5096144;28;20193;-66
2023/06/03 09:49:16;;;;;;;4.90;1.70;;;;;;;;;;5077722;28;20177;-66
2023/06/03 09:51:45;;;;;;;5.43;1.93;;;;;;;;;;5095805;28;20177;-66
2023/06/03 09:54:12;;;;;;;3.30;2.10;;;;;;;;;;5077725;28;20180;-66
2023/06/03 09:56:38;;;;;;;5.60;1.80;;;;;;;;;;5077428;28;20270;-66
2023/06/03 09:59:21;;;;;;;5.13;1.70;;;;;;;;;;5096248;28;20226;-66
2023/06/03 10:01:47;;;;;;;3.83;1.90;;;;;;;;;;5095740;28;20647;-66
2023/06/03 10:04:17;;;;;;;6.43;1.97;;;;;;;;;;5095696;28;20647;-66
2023/06/03 10:06:43;;;;;;;4.20;1.73;;;;;;;;;;5095334;28;20208;-66
2023/06/03 10:09:19;;;;;;;3.30;2.07;;;;;;;;;;5077350;28;20667;-66
2023/06/03 10:11:47;;;;;;;5.43;2.27;;;;;;;;;;5077337;28;20636;-65
2023/06/03 10:14:14;;;;;;;3.13;1.90;;;;;;;;;;5077196;28;20181;-66
2023/06/03 10:16:40;;;;;;;11.43;2.40;;;;;;;;;;5095245;28;20287;-66
2023/06/03 10:19:06;;;;;;;5.80;2.10;;;;;;;;;;5077136;28;20264;-65
2023/06/03 10:21:33;;;;;;;5.83;2.40;;;;;;;;;;5095684;28;20177;-66
2023/06/03 10:24:01;;;;;;;7.70;1.70;;;;;;;;;;5077253;28;20230;-66
2023/06/03 10:26:27;;;;;;;10.63;2.47;;;;;;;;;;5076979;28;20284;-66
2023/06/03 10:28:53;;;;;;;11.50;1.93;;;;;;;;;;5094920;28;20173;-66
2023/06/03 10:31:20;;;;;;;3.47;2.07;;;;;;;;;;5095066;28;20256;-66
2023/06/03 10:33:46;;;;;;;11.77;2.20;;;;;;;;;;5076973;28;20177;-66
2023/06/03 10:36:12;;;;;;;5.00;2.30;;;;;;;;;;5075856;28;20334;-66
2023/06/03 10:38:40;;;;;;;3.90;2.20;;;;;;;;;;5076707;28;20229;-66
2023/06/03 10:41:07;;;;;;;6.57;2.03;;;;;;;;;;5076912;28;20553;-65
2023/06/03 10:43:34;;;;;;;3.53;1.80;;;;;;;;;;5094839;28;20181;-66
2023/06/03 10:46:01;;;;;;;5.07;1.90;;;;;;;;;;5094918;28;20290;-65
2023/06/03 10:48:28;;;;;;;6.33;2.13;;;;;;;;;;5076651;28;20264;-66
2023/06/03 10:50:57;;;;;;;6.20;2.30;;;;;;;;;;5094697;28;20169;-66
2023/06/03 10:53:38;;;;;;;5.10;1.90;;;;;;;;;;5094777;28;20662;-66
2023/06/03 10:56:05;;;;;;;5.17;2.00;;;;;;;;;;5076351;28;20201;-67
2023/06/03 10:58:31;;;;;;;8.33;2.00;;;;;;;;;;5094492;28;20209;-66
2023/06/03 11:01:06;;;;;;;10.17;2.40;;;;;;;;;;5076481;28;20169;-67
2023/06/03 11:03:55;;;;;;;5.07;2.23;;;;;;;;;;5094828;28;20644;-68
2023/06/03 11:06:28;;;;;;;12.20;2.20;;;;;;;;;;5076236;28;20251;-66
2023/06/03 11:09:20;;;;;;;3.97;2.17;;;;;;;;;;5094567;28;20513;-66
2023/06/03 11:11:55;;;;;;;5.60;2.20;;;;;;;;;;5092679;28;20201;-67
2023/06/03 11:14:24;;;;;;;4.53;2.10;;;;;;;;;;5076551;28;20618;-67
2023/06/03 11:16:57;;;;;;;4.17;1.90;;;;;;;;;;5076488;28;20213;-66
2023/06/03 11:19:32;;;;;;;4.03;2.10;;;;;;;;;;5076027;28;20177;-66
2023/06/03 11:22:02;;;;;;;9.40;2.23;;;;;;;;;;5094712;28;20205;-67
2023/06/03 11:24:41;;;;;;;2.47;2.13;;;;;;;;;;5094396;28;20252;-66
2023/06/03 11:27:13;;;;;;;3.23;1.97;;;;;;;;;;5076148;28;20606;-65
2023/06/03 11:29:45;;;;;;;3.60;1.90;;;;;;;;;;5094463;28;20270;-66
2023/06/03 11:32:24;;;;;;;6.10;2.40;;;;;;;;;;5076243;28;20189;-64
2023/06/03 11:35:10;;;;;;;3.30;2.03;;;;;;;;;;5094670;28;20619;-67
2023/06/03 11:37:49;;;;;;;6.30;2.40;;;;;;;;;;5070047;28;20219;-68
2023/06/03 11:40:17;;;;;;;4.60;2.60;;;;;;;;;;5095322;28;20172;-66
2023/06/03 11:42:46;;;;;;;7.47;2.80;;;;;;;;;;5076089;28;20200;-66
2023/06/03 11:45:21;;;;;;;4.07;1.97;;;;;;;;;;5094098;28;20572;-66
2023/06/03 11:47:51;;;;;;;4.23;2.13;;;;;;;;;;5075681;28;20233;-66
2023/06/03 11:50:18;;;;;;;3.50;1.83;;;;;;;;;;5093879;28;20173;-67
2023/06/03 11:52:44;;;;;;;4.13;1.90;;;;;;;;;;5094069;28;20181;-66
2023/06/03 11:55:10;;;;;;;4.57;2.53;;;;;;;;;;5075719;28;20196;-66
2023/06/03 11:57:39;;;;;;;7.57;3.00;;;;;;;;;;5093911;28;20200;-68
2023/06/03 12:00:09;;;;;;;6.83;2.90;;;;;;;;;;5093899;28;20173;-65
2023/06/03 12:02:40;;;;;;;10.00;2.60;;;;;;;;;;5075381;28;20665;-67
2023/06/03 12:05:06;;;;;;;5.03;2.47;;;;;;;;;;5093756;28;20561;-66
2023/06/03 12:07:32;;;;;;;2.97;2.20;;;;;;;;;;5093647;28;20627;-67
2023/06/03 12:09:58;;;;;;;6.67;2.37;;;;;;;;;;5094081;28;20181;-66
2023/06/03 12:12:25;;;;;;;7.27;2.07;;;;;;;;;;5093488;28;20226;-66
2023/06/03 12:14:51;;;;;;;2.83;2.37;;;;;;;;;;5075474;28;20579;-67
2023/06/03 12:17:18;;;;;;;5.73;2.17;;;;;;;;;;5093249;28;20203;-67
2023/06/03 12:19:44;;;;;;;5.83;2.10;;;;;;;;;;5093424;28;20184;-66
2023/06/03 12:22:11;;;;;;;3.40;2.27;;;;;;;;;;5093830;28;20255;-65
2023/06/03 12:24:39;;;;;;;4.40;2.40;;;;;;;;;;5093312;28;20177;-66
2023/06/03 12:27:21;;;;;;;5.77;2.00;;;;;;;;;;5075161;28;20189;-67
2023/06/03 12:29:57;;;;;;;8.27;2.10;;;;;;;;;;5075003;28;20662;-66
2023/06/03 12:32:28;;;;;;;4.90;1.83;;;;;;;;;;5075084;28;20631;-66
2023/06/03 12:34:54;;;;;;;5.07;2.57;;;;;;;;;;5075111;28;20288;-64
2023/06/03 12:37:30;;;;;;;7.70;2.30;;;;;;;;;;5093234;28;20292;-65
2023/06/03 12:39:57;;;;;;;7.17;2.60;;;;;;;;;;5075141;28;20177;-65
2023/06/03 12:42:42;;;;;;;4.03;2.10;;;;;;;;;;5093196;28;20196;-65
2023/06/03 12:45:09;;;;;;;3.63;2.00;;;;;;;;;;5093465;28;20653;-65
2023/06/03 12:47:45;;;;;;;10.17;1.90;;;;;;;;;;5093073;28;20180;-65
2023/06/03 12:50:12;;;;;;;5.57;2.60;;;;;;;;;;5075842;28;20529;-65
2023/06/03 12:52:39;;;;;;;4.50;2.43;;;;;;;;;;5093089;28;20185;-66
2023/06/03 12:55:07;;;;;;;6.23;2.90;;;;;;;;;;5093063;28;20202;-66
2023/06/03 12:57:43;;;;;;;2.17;1.90;;;;;;;;;;5075407;28;20582;-65
2023/06/03 13:00:11;;;;;;;4.50;2.20;;;;;;;;;;5098000;28;20172;-66
2023/06/03 13:02:38;;;;;;;6.93;2.13;;;;;;;;;;5079843;28;20277;-65
2023/06/03 13:05:05;;;;;;;8.83;2.40;;;;;;;;;;5097183;28;20213;-70
2023/06/03 13:07:31;;;;;;;10.83;2.63;;;;;;;;;;5097107;28;20177;-66
2023/06/03 13:10:00;;;;;;;5.93;2.33;;;;;;;;;;5097203;28;20590;-65
2023/06/03 13:12:26;;;;;;;3.97;2.00;;;;;;;;;;5096692;28;20173;-65
2023/06/03 13:14:52;;;;;;;4.57;2.27;;;;;;;;;;5096460;28;20229;-64
2023/06/03 13:17:18;;;;;;;6.70;2.20;;;;;;;;;;5097093;28;20201;-65
2023/06/03 13:19:47;;;;;;;3.43;2.30;;;;;;;;;;5096502;28;20669;-65
2023/06/03 13:22:13;;;;;;;12.77;2.20;;;;;;;;;;5078491;28;20646;-64
2023/06/03 13:24:39;;;;;;;3.87;1.93;;;;;;;;;;5078564;28;20173;-66
2023/06/03 13:27:05;;;;;;;4.30;2.27;;;;;;;;;;5096629;28;20187;-66
2023/06/03 13:29:31;;;;;;;4.97;1.97;;;;;;;;;;5096457;28;20173;-66
2023/06/03 13:31:57;;;;;;;4.63;2.00;;;;;;;;;;5096809;28;20177;-64
2023/06/03 13:34:23;;;;;;;8.30;2.10;;;;;;;;;;5096461;28;20529;-64
2023/06/03 13:36:49;;;;;;;5.43;2.10;;;;;;;;;;5096439;28;20211;-65
2023/06/03 13:39:17;;;;;;;6.83;1.90;;;;;;;;;;5096501;28;20173;-65
2023/06/03 13:41:43;;;;;;;4.67;2.43;;;;;;;;;;5096042;28;20233;-65
2023/06/03 13:44:09;;;;;;;3.77;2.23;;;;;;;;;;5099017;22;20225;-69
2023/06/03 13:46:35;;;;;;;4.27;2.30;;;;;;;;;;5096444;28;20255;-69
2023/06/03 13:49:01;;;;;;;3.23;2.07;;;;;;;;;;5095887;28;20222;-69
2023/06/03 13:51:27;;;;;;;6.77;2.07;;;;;;;;;;5096108;28;20169;-69
2023/06/03 13:53:53;;;;;;;5.40;2.00;;;;;;;;;;5095651;28;20581;-69
2023/06/03 13:56:21;;;;;;;2.43;1.80;;;;;;;;;;5077514;28;20216;-70
2023/06/03 13:58:46;;;;;;;5.00;1.97;;;;;;;;;;5095860;28;20193;-69
2023/06/03 14:01:15;;;;;;;4.93;2.10;;;;;;;;;;5096307;28;20639;-69
2023/06/03 14:03:41;;;;;;;3.20;2.10;;;;;;;;;;5077343;28;20197;-70
2023/06/03 14:06:07;;;;;;;5.50;2.30;;;;;;;;;;5095999;28;20174;-69
2023/06/03 14:08:33;;;;;;;3.97;2.00;;;;;;;;;;5077644;28;20177;-70
2023/06/03 14:10:59;;;;;;;4.33;2.00;;;;;;;;;;5076342;28;20223;-69
2023/06/03 14:13:25;;;;;;;7.33;1.97;;;;;;;;;;5095719;28;20209;-70
2023/06/03 14:15:51;;;;;;;3.03;1.77;;;;;;;;;;5077312;28;20180;-69
2023/06/03 14:18:17;;;;;;;5.53;1.93;;;;;;;;;;5095399;28;20213;-70
2023/06/03 14:20:43;;;;;;;5.63;2.00;;;;;;;;;;5095525;28;20178;-67
2023/06/03 14:23:09;;;;;;;5.20;1.93;;;;;;;;;;5078675;28;20209;-69
2023/06/03 14:25:35;;;;;;;;;;;;;;;;;;5097217;28;20024;-69
2023/06/03 14:28:04;;;;;;;4.70;2.03;;;;;;;;;;5076431;28;20490;-69
2023/06/03 14:30:30;;;;;;;6.37;1.80;;;;;;;;;;5095065;28;20200;-69
2023/06/03 14:32:57;;;;;;;2.90;2.10;;;;;;;;;;5095140;28;20683;-69
2023/06/03 14:35:23;;;;;;;;;;;;;;;;;;5077412;28;20024;-69
2023/06/03 14:37:49;;;;;;;7.10;2.30;;;;;;;;;;5075509;28;20407;-70
2023/06/03 14:40:15;;;;;;;5.80;2.40;;;;;;;;;;5094984;28;20665;-70
2023/06/03 14:42:41;;;;;;;4.00;2.00;;;;;;;;;;5094968;28;20205;-70
2023/06/03 14:45:07;;;;;;;2.53;1.87;;;;;;;;;;5076723;28;20173;-69